メインページ
METAR-TAF:

METAR-TAF

空港 :

ブリュッセル空港

ブリュッセル, ベルギー

緯度: 50-54N, 経度: 004-32E, 海抜: 55m

現時点の気象観測

当レポートは28分前の10:50(UTC)に作成
の風 5kt
気温 11°C
湿度 82%
気圧 1027 hPa
視程10km以上
高度1800ftの雲はほとんどない

METAR: EBBR 141050Z 18005KT 9999 FEW018 11/08 Q1027 NOSIG

時間: 12:18 (11:18 UTC)

予報

当レポートは6時間8分前の05:10(UTC)に作成
予報は14日の 06時(UTC)から 15日の 12時(UTC)まで有効
の風 7kt
視程10km以上
1,500メートル以下は雲なし、積乱雲なし
14日の 06時(UTC)から 14日の 08時(UTC)まで一時的に
視程: 4000m
15日の 02時(UTC)から 15日の 04時(UTC)まで徐々に
視程: 3000m
確率 30% :
15日の 08時(UTC)から 15日の 10時(UTC)まで一時的に
視程: 1200m
高度300ftの千切れ雲あり
散在霧
15日の 09時(UTC)から 15日の 11時(UTC)まで徐々に
視程: 7000m

TAF: EBBR 140510Z 1406/1512 18007KT CAVOK TEMPO 1406/1408 4000 BR BECMG 1502/1504 3000 BR PROB30 TEMPO 1508/1510 1200 BCFG BKN003 BECMG 1509/1511 7000 NSW

4,000以上の空港の気象観測と天気予報(METAR報とTAF報)

利用可能な観測所は地図上に黄色い丸と赤い丸で示す。

丸の上にカーソルを重ねると観測所名を参照できる。

次にクリックすると気象観測と天気予報を参照できる。

マップの切り替え:黒色「×」印の緑ボタンをクリックして拡大、「-」印の緑ボタンをクリックして縮小、緑色の三角印をクリックして隣りの地図に切り替え


METAR-TAF: